createdAt,value
2018-02-10T00:01:30.360Z,25.52
2018-02-10T00:03:59.225Z,25.50
2018-02-10T00:06:28.049Z,25.65
2018-02-10T00:08:56.878Z,23.92
2018-02-10T00:11:25.797Z,24.33
2018-02-10T00:13:54.683Z,24.67
2018-02-10T00:16:23.525Z,22.52
2018-02-10T00:18:52.336Z,27.13
2018-02-10T00:21:21.207Z,25.27
2018-02-10T00:23:50.007Z,26.23
2018-02-10T00:26:18.857Z,25.90
2018-02-10T00:28:47.674Z,24.67
2018-02-10T00:31:16.532Z,26.23
2018-02-10T00:33:45.358Z,28.50
2018-02-10T00:36:14.207Z,28.33
2018-02-10T00:38:43.044Z,23.42
2018-02-10T00:41:11.847Z,24.52
2018-02-10T00:43:40.753Z,23.48
2018-02-10T00:46:09.590Z,35.58
2018-02-10T00:48:38.429Z,25.15
2018-02-10T00:51:07.281Z,26.35
2018-02-10T00:53:36.101Z,32.83
2018-02-10T00:56:04.940Z,28.20
2018-02-10T00:58:33.761Z,24.17
2018-02-10T01:01:02.636Z,25.40
2018-02-10T01:03:31.466Z,27.95
2018-02-10T01:06:00.396Z,35.40
2018-02-10T01:08:29.233Z,27.02
2018-02-10T01:10:58.258Z,29.63
2018-02-10T01:13:27.098Z,68.90
2018-02-10T01:15:55.913Z,55.53
2018-02-10T01:18:24.766Z,27.40
2018-02-10T01:20:53.645Z,52.72
2018-02-10T01:23:22.509Z,37.60
2018-02-10T01:25:51.320Z,31.83
2018-02-10T01:28:20.148Z,29.58
2018-02-10T01:30:48.986Z,37.15
2018-02-10T01:33:17.810Z,40.15
2018-02-10T01:35:46.657Z,37.47
2018-02-10T01:38:15.486Z,27.00
2018-02-10T01:40:44.308Z,25.62
2018-02-10T01:43:13.144Z,27.35
2018-02-10T01:45:41.962Z,27.20
2018-02-10T01:48:10.842Z,29.98
2018-02-10T01:50:39.641Z,28.90
2018-02-10T01:53:08.492Z,37.50
2018-02-10T01:55:37.336Z,26.35
2018-02-10T01:58:07.310Z,28.62
2018-02-10T02:00:36.132Z,28.48
2018-02-10T02:03:04.992Z,28.65
2018-02-10T02:05:33.824Z,29.58
2018-02-10T02:08:02.724Z,27.37
2018-02-10T02:10:31.551Z,28.17
2018-02-10T02:13:00.358Z,22.67
2018-02-10T02:15:29.197Z,26.05
2018-02-10T02:17:58.120Z,29.23
2018-02-10T02:20:26.933Z,23.73
2018-02-10T02:22:55.873Z,28.48
2018-02-10T02:25:24.715Z,28.73
2018-02-10T02:27:53.541Z,24.95
2018-02-10T02:30:22.385Z,27.35
2018-02-10T02:32:51.204Z,22.48
2018-02-10T02:35:20.053Z,28.65
2018-02-10T02:37:48.897Z,38.78
2018-02-10T02:40:17.731Z,36.22
2018-02-10T02:42:46.577Z,40.33
2018-02-10T02:45:15.396Z,29.92
2018-02-10T02:47:44.232Z,30.92
2018-02-10T02:50:13.045Z,27.00
2018-02-10T02:52:41.896Z,29.70
2018-02-10T02:55:10.712Z,38.33
2018-02-10T02:57:39.613Z,28.15
2018-02-10T03:00:08.448Z,31.98
2018-02-10T03:02:37.280Z,28.08
2018-02-10T03:05:06.128Z,46.63
2018-02-10T03:07:34.953Z,35.17
2018-02-10T03:10:03.793Z,28.08
2018-02-10T03:12:32.607Z,22.45
2018-02-10T03:15:01.445Z,33.72
2018-02-10T03:17:30.244Z,23.87
2018-02-10T03:19:59.232Z,25.42
2018-02-10T03:22:28.043Z,26.67
2018-02-10T03:24:56.878Z,22.85
2018-02-10T03:27:25.708Z,38.45
2018-02-10T03:29:54.631Z,23.50
2018-02-10T03:32:23.461Z,23.85
2018-02-10T03:34:52.357Z,24.30
2018-02-10T03:37:21.195Z,22.62
2018-02-10T03:39:50.020Z,21.77
2018-02-10T03:42:19.256Z,17.67
2018-02-10T03:44:48.105Z,19.85
2018-02-10T03:47:16.928Z,23.70
2018-02-10T03:49:45.765Z,25.77
2018-02-10T03:52:14.589Z,22.87
2018-02-10T03:54:43.500Z,21.73
2018-02-10T03:57:12.324Z,20.88
2018-02-10T03:59:41.161Z,21.30
2018-02-10T04:02:10.069Z,21.12
2018-02-10T04:04:38.912Z,22.10
2018-02-10T04:07:07.724Z,20.83
2018-02-10T04:09:36.684Z,21.17
2018-02-10T04:12:05.505Z,21.00
2018-02-10T04:14:34.340Z,18.83
2018-02-10T04:17:03.169Z,20.62
2018-02-10T04:19:31.991Z,33.13
2018-02-10T04:22:00.850Z,20.65
2018-02-10T04:24:29.713Z,21.00
2018-02-10T04:26:58.543Z,26.35
2018-02-10T04:29:27.341Z,18.15
2018-02-10T04:31:56.160Z,19.23
2018-02-10T04:34:24.993Z,18.55
2018-02-10T04:36:53.805Z,20.67
2018-02-10T04:39:22.637Z,18.98
2018-02-10T04:41:51.447Z,19.37
2018-02-10T04:44:20.278Z,17.65
2018-02-10T04:46:49.184Z,17.77
2018-02-10T04:49:18.008Z,18.50
2018-02-10T04:51:46.818Z,21.25
2018-02-10T04:54:15.622Z,19.77
2018-02-10T04:56:44.463Z,17.60
2018-02-10T04:59:13.340Z,19.73
2018-02-10T05:01:42.147Z,21.42
2018-02-10T05:04:10.975Z,15.15
2018-02-10T05:06:39.815Z,16.95
2018-02-10T05:09:08.634Z,20.20
2018-02-10T05:11:37.490Z,19.90
2018-02-10T05:14:06.317Z,20.58
2018-02-10T05:16:35.132Z,21.83
2018-02-10T05:19:04.053Z,36.17
2018-02-10T05:21:32.864Z,18.12
2018-02-10T05:24:01.701Z,17.90
2018-02-10T05:26:30.508Z,19.17
2018-02-10T05:28:59.367Z,19.55
2018-02-10T05:31:28.175Z,21.73
2018-02-10T05:33:57.023Z,21.60
2018-02-10T05:36:25.853Z,21.80
2018-02-10T05:38:54.653Z,20.42
2018-02-10T05:41:23.493Z,19.55
2018-02-10T05:43:52.341Z,20.02
2018-02-10T05:46:21.176Z,21.67
2018-02-10T05:48:50.014Z,32.50
2018-02-10T05:51:18.853Z,21.75
2018-02-10T05:53:47.704Z,23.50
2018-02-10T05:56:16.537Z,23.95
2018-02-10T05:58:45.375Z,20.83
2018-02-10T06:01:14.187Z,20.62
2018-02-10T06:03:43.042Z,23.75
2018-02-10T06:06:11.972Z,20.48
2018-02-10T06:08:40.805Z,21.90
2018-02-10T06:11:09.627Z,20.30
2018-02-10T06:13:38.478Z,17.85
2018-02-10T06:16:07.309Z,15.88
2018-02-10T06:18:36.139Z,13.13
2018-02-10T06:21:04.978Z,15.20
2018-02-10T06:23:33.793Z,18.95
2018-02-10T06:26:02.694Z,22.83
2018-02-10T06:28:31.521Z,20.35
2018-02-10T06:31:00.335Z,19.37
2018-02-10T06:33:29.212Z,18.20
2018-02-10T06:35:58.072Z,16.45
2018-02-10T06:38:26.884Z,19.58
2018-02-10T06:40:55.712Z,25.48
2018-02-10T06:43:24.560Z,15.55
2018-02-10T06:45:53.376Z,15.63
2018-02-10T06:48:22.218Z,22.40
2018-02-10T06:50:51.038Z,14.95
2018-02-10T06:53:19.885Z,15.63
2018-02-10T06:55:48.778Z,21.25
2018-02-10T06:58:17.625Z,17.05
2018-02-10T07:00:46.441Z,14.30
2018-02-10T07:03:15.260Z,19.37
2018-02-10T07:05:44.113Z,15.10
2018-02-10T07:08:12.928Z,22.13
2018-02-10T07:10:41.781Z,18.73
2018-02-10T07:13:10.588Z,19.30
2018-02-10T07:15:39.431Z,19.08
2018-02-10T07:18:08.249Z,20.85
2018-02-10T07:20:37.085Z,22.95
2018-02-10T07:23:05.934Z,19.70
2018-02-10T07:25:34.842Z,18.70
2018-02-10T07:28:03.687Z,21.73
2018-02-10T07:30:32.513Z,15.70
2018-02-10T07:33:01.356Z,13.98
2018-02-10T07:35:30.198Z,15.32
2018-02-10T07:37:59.055Z,17.55
2018-02-10T07:40:27.872Z,19.60
2018-02-10T07:42:56.730Z,21.95
2018-02-10T07:45:25.561Z,19.95
2018-02-10T07:47:54.377Z,22.50
2018-02-10T07:50:23.211Z,21.90
2018-02-10T07:52:52.065Z,21.20
2018-02-10T07:55:20.875Z,22.60
2018-02-10T07:57:49.714Z,21.85
2018-02-10T08:00:18.577Z,21.95
2018-02-10T08:02:47.401Z,23.40
2018-02-10T08:05:16.260Z,24.20
2018-02-10T08:07:45.080Z,22.10
2018-02-10T08:10:13.892Z,22.23
2018-02-10T08:12:42.748Z,21.23
2018-02-10T08:15:11.610Z,22.77
2018-02-10T08:17:40.450Z,21.05
2018-02-10T08:20:09.263Z,19.23
2018-02-10T08:22:38.114Z,20.33
2018-02-10T08:25:06.952Z,20.48
2018-02-10T08:27:35.806Z,22.60
2018-02-10T08:30:04.612Z,20.33
2018-02-10T08:32:33.452Z,24.95
2018-02-10T08:35:02.479Z,20.00
2018-02-10T08:37:31.341Z,16.73
2018-02-10T08:40:00.235Z,20.20
2018-02-10T08:42:29.062Z,22.85
2018-02-10T08:44:57.905Z,18.35
2018-02-10T08:47:26.803Z,23.02
2018-02-10T08:49:55.641Z,21.98
2018-02-10T08:52:24.451Z,21.48
2018-02-10T08:54:53.292Z,21.23
2018-02-10T08:57:22.108Z,22.55
2018-02-10T08:59:50.965Z,18.80
2018-02-10T09:02:19.784Z,19.02
2018-02-10T09:04:48.713Z,19.20
2018-02-10T09:07:17.562Z,16.80
2018-02-10T09:09:46.382Z,15.77
2018-02-10T09:12:16.117Z,18.40
2018-02-10T09:14:44.929Z,18.83
2018-02-10T09:17:13.770Z,14.45
2018-02-10T09:19:42.598Z,19.12
2018-02-10T09:22:11.457Z,20.48
2018-02-10T09:24:40.330Z,20.37
2018-02-10T09:27:09.151Z,16.10
2018-02-10T09:29:38.006Z,19.08
2018-02-10T09:32:06.854Z,19.37
2018-02-10T09:34:35.682Z,18.17
2018-02-10T09:37:04.511Z,17.35
2018-02-10T09:39:33.327Z,19.12
2018-02-10T09:42:02.179Z,19.73
2018-02-10T09:44:30.997Z,18.20
2018-02-10T09:46:59.846Z,18.55
2018-02-10T09:49:28.680Z,18.92
2018-02-10T09:51:57.618Z,17.20
2018-02-10T09:54:26.428Z,16.08
2018-02-10T09:56:55.335Z,15.48
2018-02-10T09:59:24.154Z,15.63
2018-02-10T10:01:53.025Z,14.70
2018-02-10T10:04:21.884Z,14.82
2018-02-10T10:06:50.725Z,16.02
2018-02-10T10:09:19.556Z,13.23
2018-02-10T10:11:48.480Z,16.45
2018-02-10T10:14:17.362Z,13.98
2018-02-10T10:16:46.202Z,16.20
2018-02-10T10:19:15.052Z,14.77
2018-02-10T10:21:43.886Z,16.95
2018-02-10T10:24:12.710Z,18.00
2018-02-10T10:26:41.598Z,17.92
2018-02-10T10:29:10.412Z,15.23
2018-02-10T10:31:39.249Z,15.18
2018-02-10T10:34:08.068Z,16.42
2018-02-10T10:36:36.944Z,15.07
2018-02-10T10:39:05.788Z,14.75
2018-02-10T10:41:34.617Z,18.25
2018-02-10T10:44:03.479Z,18.90
2018-02-10T10:46:32.679Z,20.60
2018-02-10T10:49:01.514Z,16.50
2018-02-10T10:51:30.370Z,21.67
2018-02-10T10:53:59.197Z,16.08
2018-02-10T10:56:28.067Z,15.85
2018-02-10T10:58:56.887Z,13.82
2018-02-10T11:01:25.737Z,15.85
2018-02-10T11:03:54.562Z,14.00
2018-02-10T11:06:23.397Z,13.68
2018-02-10T11:08:52.240Z,13.85
2018-02-10T11:11:21.080Z,14.77
2018-02-10T11:13:49.930Z,11.27
2018-02-10T11:16:18.799Z,12.80
2018-02-10T11:18:47.645Z,15.65
2018-02-10T11:21:16.462Z,15.02
2018-02-10T11:23:45.296Z,16.40
2018-02-10T11:26:14.154Z,15.13
2018-02-10T11:28:42.979Z,18.25
2018-02-10T11:31:11.818Z,17.27
2018-02-10T11:33:40.655Z,16.98
2018-02-10T11:36:09.514Z,19.23
2018-02-10T11:38:38.347Z,18.40
2018-02-10T11:41:07.208Z,20.85
2018-02-10T11:43:36.094Z,19.17
2018-02-10T11:46:04.933Z,16.67
2018-02-10T11:48:33.775Z,19.48
2018-02-10T11:51:02.599Z,17.77
2018-02-10T11:53:31.445Z,20.27
2018-02-10T11:56:00.329Z,19.10
2018-02-10T11:58:29.166Z,16.60
2018-02-10T12:00:58.050Z,18.23
2018-02-10T12:03:26.877Z,19.58
2018-02-10T12:05:55.750Z,16.90
2018-02-10T12:08:24.573Z,18.37
2018-02-10T12:10:53.484Z,19.67
2018-02-10T12:13:22.306Z,16.52
2018-02-10T12:15:51.184Z,17.42
2018-02-10T12:18:20.016Z,19.52
2018-02-10T12:20:48.837Z,18.10
2018-02-10T12:23:17.694Z,29.77
2018-02-10T12:25:46.530Z,20.62
2018-02-10T12:28:15.447Z,19.55
2018-02-10T12:30:44.266Z,19.70
2018-02-10T12:33:13.166Z,21.83
2018-02-10T12:35:42.097Z,19.17
2018-02-10T12:38:10.930Z,18.52
2018-02-10T12:40:39.791Z,17.75
2018-02-10T12:43:08.810Z,17.87
2018-02-10T12:45:37.697Z,19.12
2018-02-10T12:48:24.308Z,16.27
2018-02-10T12:50:53.185Z,17.42
2018-02-10T12:53:22.045Z,24.42
2018-02-10T12:55:50.908Z,20.30
2018-02-10T12:58:19.786Z,20.75
2018-02-10T13:00:48.634Z,19.25
2018-02-10T13:03:17.467Z,18.87
2018-02-10T13:05:46.388Z,21.65
2018-02-10T13:08:15.240Z,20.08
2018-02-10T13:10:44.105Z,19.48
2018-02-10T13:13:12.958Z,26.08
2018-02-10T13:15:41.770Z,19.35
2018-02-10T13:18:10.637Z,14.13
2018-02-10T13:20:39.522Z,16.50
2018-02-10T13:23:08.372Z,16.00
2018-02-10T13:25:37.242Z,15.93
2018-02-10T13:28:06.124Z,14.82
2018-02-10T13:30:34.949Z,16.75
2018-02-10T13:33:03.804Z,21.75
2018-02-10T13:35:32.790Z,15.48
2018-02-10T13:38:01.748Z,16.17
2018-02-10T13:40:30.558Z,15.48
2018-02-10T13:42:59.426Z,14.68
2018-02-10T13:45:28.223Z,15.82
2018-02-10T13:47:57.074Z,15.98
2018-02-10T13:50:25.973Z,13.02
2018-02-10T13:52:54.793Z,12.88
2018-02-10T13:55:23.632Z,13.55
2018-02-10T13:57:52.480Z,14.40
2018-02-10T14:00:21.316Z,13.98
2018-02-10T14:02:50.160Z,13.45
2018-02-10T14:05:19.030Z,13.00
2018-02-10T14:07:47.890Z,12.48
2018-02-10T14:10:16.735Z,13.57
2018-02-10T14:12:45.552Z,12.25
2018-02-10T14:15:14.387Z,12.82
2018-02-10T14:17:43.231Z,14.35
2018-02-10T14:20:12.054Z,12.82
2018-02-10T14:22:40.924Z,13.75
2018-02-10T14:25:09.768Z,12.13
2018-02-10T14:27:38.721Z,11.23
2018-02-10T14:30:07.560Z,11.75
2018-02-10T14:32:36.374Z,12.65
2018-02-10T14:35:05.222Z,12.20
2018-02-10T14:37:34.040Z,13.20
2018-02-10T14:40:02.885Z,13.50
2018-02-10T14:42:31.700Z,12.15
2018-02-10T14:45:00.539Z,11.55
2018-02-10T14:47:29.444Z,11.20
2018-02-10T14:49:58.266Z,13.30
2018-02-10T14:52:27.089Z,12.68
2018-02-10T14:54:55.947Z,10.40
2018-02-10T14:57:24.789Z,10.02
2018-02-10T15:02:29.037Z,9.15
2018-02-10T15:04:57.965Z,7.05
2018-02-10T15:07:26.831Z,7.75
2018-02-10T15:09:55.698Z,7.53
2018-02-10T15:12:24.520Z,7.43
2018-02-10T15:14:53.354Z,7.10
2018-02-10T15:17:22.231Z,7.22
2018-02-10T15:19:51.856Z,6.93
2018-02-10T15:22:20.836Z,7.10
2018-02-10T15:24:49.831Z,6.85
2018-02-10T15:27:18.661Z,6.82
2018-02-10T15:29:53.286Z,6.62
2018-02-10T15:32:27.948Z,6.93
2018-02-10T15:34:56.821Z,6.53
2018-02-10T15:37:25.656Z,6.10
2018-02-10T15:39:54.534Z,6.85
2018-02-10T15:44:58.861Z,7.35
2018-02-10T15:47:27.749Z,6.53
2018-02-10T15:49:56.601Z,7.25
2018-02-10T15:52:25.488Z,7.22
2018-02-10T15:54:54.321Z,7.20
2018-02-10T15:57:23.196Z,7.25
2018-02-10T15:59:52.054Z,7.60
2018-02-10T16:02:20.881Z,7.20
2018-02-10T16:04:49.728Z,7.62
2018-02-10T16:07:18.617Z,7.68
2018-02-10T16:09:47.503Z,6.30
2018-02-10T16:12:16.311Z,7.22
2018-02-10T16:14:45.207Z,7.03
2018-02-10T16:17:14.036Z,6.50
2018-02-10T16:19:42.973Z,7.07
2018-02-10T16:22:11.869Z,6.22
2018-02-10T16:24:40.685Z,6.68
2018-02-10T16:27:09.562Z,6.40
2018-02-10T16:29:38.377Z,7.75
2018-02-10T16:32:07.245Z,7.05
2018-02-10T16:34:36.056Z,7.47
2018-02-10T16:37:04.928Z,6.87
2018-02-10T16:39:33.830Z,6.03
2018-02-10T16:42:02.660Z,6.53
2018-02-10T16:44:31.525Z,6.12
2018-02-10T16:47:00.380Z,7.80
2018-02-10T16:49:29.249Z,6.97
2018-02-10T16:51:58.117Z,6.35
2018-02-10T16:54:27.007Z,7.57
2018-02-10T16:56:55.860Z,14.65
2018-02-10T16:59:24.696Z,9.82
2018-02-10T17:01:53.546Z,17.27
2018-02-10T17:04:22.397Z,9.70
2018-02-10T17:06:51.243Z,7.22
2018-02-10T17:09:20.084Z,10.20
2018-02-10T17:11:48.926Z,9.45
2018-02-10T17:14:17.781Z,7.50
2018-02-10T17:16:46.600Z,25.65
2018-02-10T17:19:15.487Z,7.57
2018-02-10T17:21:44.377Z,20.35
2018-02-10T17:24:13.260Z,13.25
2018-02-10T17:26:42.110Z,9.38
2018-02-10T17:29:11.008Z,11.43
2018-02-10T17:31:39.860Z,11.43
2018-02-10T17:34:08.746Z,11.55
2018-02-10T17:36:38.390Z,9.60
2018-02-10T17:39:07.252Z,10.45
2018-02-10T17:41:36.090Z,9.35
2018-02-10T17:44:04.913Z,9.98
2018-02-10T17:46:33.771Z,9.98
2018-02-10T17:49:02.646Z,16.62
2018-02-10T17:51:31.481Z,10.52
2018-02-10T17:54:00.322Z,14.27
2018-02-10T17:56:29.154Z,7.65
2018-02-10T17:58:57.992Z,9.07
2018-02-10T18:01:28.676Z,7.93
2018-02-10T18:03:57.582Z,7.22
2018-02-10T18:06:26.441Z,9.63
2018-02-10T18:08:55.269Z,27.95
2018-02-10T18:11:24.074Z,11.25
2018-02-10T18:13:52.917Z,9.35
2018-02-10T18:16:21.750Z,8.15
2018-02-10T18:18:50.589Z,10.07
2018-02-10T18:21:19.471Z,8.20
2018-02-10T18:23:48.338Z,8.68
2018-02-10T18:26:17.181Z,9.98
2018-02-10T18:28:46.041Z,8.63
2018-02-10T18:31:14.907Z,9.63
2018-02-10T18:33:43.745Z,7.25
2018-02-10T18:36:12.600Z,8.88
2018-02-10T18:38:41.422Z,6.95
2018-02-10T18:41:10.285Z,7.10
2018-02-10T18:43:39.090Z,6.72
2018-02-10T18:46:07.900Z,7.50
2018-02-10T18:48:36.785Z,5.95
2018-02-10T18:51:05.665Z,7.30
2018-02-10T18:53:34.504Z,5.78
2018-02-10T18:56:03.343Z,8.25
2018-02-10T18:58:32.271Z,6.22
2018-02-10T19:01:01.093Z,7.40
2018-02-10T19:03:29.933Z,5.18
2018-02-10T19:05:58.817Z,5.35
2018-02-10T19:08:27.654Z,15.32
2018-02-10T19:10:56.504Z,11.25
2018-02-10T19:13:25.377Z,26.00
2018-02-10T19:15:54.242Z,70.53
2018-02-10T19:18:23.097Z,17.90
2018-02-10T19:20:51.964Z,30.80
2018-02-10T19:23:20.812Z,17.12
2018-02-10T19:25:49.684Z,35.63
2018-02-10T19:28:18.567Z,11.63
2018-02-10T19:30:47.497Z,49.75
2018-02-10T19:33:16.357Z,10.18
2018-02-10T19:35:45.217Z,23.83
2018-02-10T19:38:14.079Z,29.27
2018-02-10T19:40:42.912Z,18.58
2018-02-10T19:43:11.746Z,8.85
2018-02-10T19:45:40.574Z,10.63
2018-02-10T19:48:09.432Z,13.10
2018-02-10T19:50:38.257Z,11.90
2018-02-10T19:53:07.147Z,6.82
2018-02-10T19:55:36.007Z,8.43
2018-02-10T19:58:04.823Z,6.35
2018-02-10T20:00:33.707Z,8.10
2018-02-10T20:03:02.538Z,6.10
2018-02-10T20:05:31.441Z,6.75
2018-02-10T20:08:00.316Z,14.98
2018-02-10T20:10:29.202Z,8.70
2018-02-10T20:12:58.028Z,6.80
2018-02-10T20:15:26.876Z,6.47
2018-02-10T20:17:55.701Z,8.07
2018-02-10T20:20:24.557Z,8.63
2018-02-10T20:22:54.353Z,8.90
2018-02-10T20:25:23.201Z,7.45
2018-02-10T20:27:52.017Z,6.82
2018-02-10T20:30:20.884Z,6.65
2018-02-10T20:32:49.722Z,10.48
2018-02-10T20:35:18.576Z,7.78
2018-02-10T20:37:47.423Z,6.97
2018-02-10T20:40:16.285Z,8.40
2018-02-10T20:42:45.186Z,7.57
2018-02-10T20:45:14.002Z,10.65
2018-02-10T20:47:42.868Z,7.35
2018-02-10T20:50:11.703Z,10.25
2018-02-10T20:52:40.625Z,6.30
2018-02-10T20:55:09.847Z,6.97
2018-02-10T20:57:38.663Z,7.82
2018-02-10T21:00:07.518Z,8.27
2018-02-10T21:02:36.391Z,7.30
2018-02-10T21:05:05.244Z,8.02
2018-02-10T21:07:34.085Z,7.65
2018-02-10T21:10:02.915Z,6.97
2018-02-10T21:12:31.765Z,8.38
2018-02-10T21:15:00.623Z,7.40
2018-02-10T21:17:29.493Z,7.37
2018-02-10T21:19:58.301Z,8.85
2018-02-10T21:22:27.135Z,7.80
2018-02-10T21:24:56.015Z,8.55
2018-02-10T21:27:24.882Z,7.75
2018-02-10T21:29:53.733Z,11.68
2018-02-10T21:32:22.568Z,11.95
2018-02-10T21:34:51.433Z,7.75
2018-02-10T21:37:20.281Z,6.03
2018-02-10T21:39:49.184Z,14.50
2018-02-10T21:42:18.069Z,11.43
2018-02-10T21:44:47.068Z,11.38
2018-02-10T21:47:15.901Z,10.13
2018-02-10T21:49:44.759Z,12.80
2018-02-10T21:52:13.595Z,11.23
2018-02-10T21:54:42.492Z,6.95
2018-02-10T21:57:11.351Z,11.35
2018-02-10T21:59:40.207Z,7.03
2018-02-10T22:02:09.062Z,7.55
2018-02-10T22:04:37.899Z,12.88
2018-02-10T22:07:06.740Z,17.30
2018-02-10T22:09:35.591Z,12.65
2018-02-10T22:12:04.433Z,16.92
2018-02-10T22:14:33.292Z,12.70
2018-02-10T22:17:02.133Z,8.68
2018-02-10T22:19:30.999Z,8.55
2018-02-10T22:21:59.852Z,10.32
2018-02-10T22:24:28.727Z,8.07
2018-02-10T22:26:57.547Z,13.20
2018-02-10T22:29:26.400Z,7.87
2018-02-10T22:31:55.247Z,8.02
2018-02-10T22:34:24.090Z,8.90
2018-02-10T22:36:52.926Z,8.77
2018-02-10T22:39:21.745Z,7.12
2018-02-10T22:41:50.599Z,12.77
2018-02-10T22:44:19.417Z,22.55
2018-02-10T22:46:48.277Z,13.32
2018-02-10T22:49:17.128Z,13.25
2018-02-10T22:51:45.972Z,11.12
2018-02-10T22:54:14.817Z,11.75
2018-02-10T22:56:43.672Z,10.02
2018-02-10T22:59:12.511Z,10.27
2018-02-10T23:01:41.327Z,10.02
2018-02-10T23:04:10.216Z,14.68
2018-02-10T23:06:39.372Z,9.77
2018-02-10T23:09:08.200Z,12.68
2018-02-10T23:11:37.325Z,10.85
2018-02-10T23:14:06.173Z,11.35
2018-02-10T23:16:35.027Z,13.02
2018-02-10T23:19:03.881Z,11.82
2018-02-10T23:21:32.693Z,15.82
2018-02-10T23:24:01.570Z,12.95
2018-02-10T23:26:30.396Z,9.32
2018-02-10T23:28:59.217Z,11.32
2018-02-10T23:31:28.055Z,13.98
2018-02-10T23:33:56.907Z,10.70
2018-02-10T23:36:25.735Z,9.57
2018-02-10T23:38:54.660Z,10.98
2018-02-10T23:41:23.502Z,8.77
2018-02-10T23:43:52.331Z,9.02
2018-02-10T23:46:21.203Z,8.80
2018-02-10T23:48:50.018Z,9.27
2018-02-10T23:51:18.849Z,8.65
2018-02-10T23:53:47.679Z,11.12
2018-02-10T23:56:16.517Z,11.40
2018-02-10T23:58:45.361Z,10.75
